createdAt,value
2023-03-23T15:59:06.474Z,15.53
2023-03-23T16:04:15.613Z,15.43
2023-03-23T16:09:21.227Z,15.35
2023-03-23T16:14:24.943Z,15.28
2023-03-23T16:19:28.327Z,15.25
2023-03-23T16:24:32.535Z,15.22
2023-03-23T16:29:59.771Z,15.11
2023-03-23T16:35:01.678Z,14.99
2023-03-23T16:40:07.534Z,14.82
2023-03-23T16:45:14.009Z,14.72
2023-03-23T16:50:19.123Z,14.64
2023-03-23T16:55:23.359Z,14.55
2023-03-23T17:00:27.709Z,14.46
2023-03-23T17:05:31.801Z,14.40
2023-03-23T17:10:38.839Z,14.35
2023-03-23T17:15:46.046Z,14.33
2023-03-23T17:20:53.844Z,14.29
2023-03-23T17:25:57.831Z,14.26
2023-03-23T17:31:01.861Z,14.26
2023-03-23T17:36:06.951Z,14.21
2023-03-23T17:41:11.964Z,14.15
2023-03-23T17:46:16.310Z,14.11
2023-03-23T17:51:19.963Z,14.09
2023-03-23T17:56:23.896Z,14.07
2023-03-23T18:01:27.541Z,14.03
2023-03-23T18:06:33.858Z,13.96
2023-03-23T18:11:39.487Z,13.90
2023-03-23T18:16:43.580Z,13.84
2023-03-23T18:21:49.132Z,13.78
2023-03-23T18:26:53.389Z,13.73
2023-03-23T18:31:58.139Z,13.67
2023-03-23T18:37:03.597Z,13.64
2023-03-23T18:42:08.450Z,13.55
2023-03-23T18:47:12.997Z,13.53
2023-03-23T18:52:19.189Z,13.49
2023-03-23T18:57:24.016Z,13.43
2023-03-23T19:02:29.667Z,13.36
2023-03-23T19:07:34.401Z,13.30
2023-03-23T19:12:38.332Z,13.24
2023-03-23T19:17:42.030Z,13.22
2023-03-23T19:22:46.061Z,13.26
2023-03-23T19:28:38.534Z,13.24
2023-03-23T19:33:15.689Z,13.20
2023-03-23T19:38:23.693Z,13.14
2023-03-23T19:43:28.740Z,13.12
2023-03-23T19:48:33.795Z,13.09
2023-03-23T19:53:39.800Z,13.07
2023-03-23T19:58:47.231Z,13.05
2023-03-23T20:03:53.522Z,13.02
2023-03-23T20:09:01.288Z,13.02
2023-03-23T20:14:06.966Z,13.07
2023-03-23T20:19:10.770Z,13.11
2023-03-23T20:24:15.262Z,13.16
2023-03-23T20:29:19.624Z,13.20
2023-03-23T20:34:32.939Z,13.21
2023-03-23T20:39:42.725Z,13.19
2023-03-23T20:44:47.830Z,13.17
2023-03-23T20:49:57.147Z,13.15
2023-03-23T20:55:03.485Z,13.12
2023-03-23T21:00:09.961Z,13.10
2023-03-23T21:05:13.923Z,13.15
2023-03-23T21:10:18.410Z,13.19
2023-03-23T21:15:22.944Z,13.15
2023-03-23T21:20:27.984Z,13.07
2023-03-23T21:25:35.485Z,12.93
2023-03-23T21:30:46.796Z,12.80
2023-03-23T21:35:51.562Z,12.68
2023-03-23T21:40:59.403Z,12.56
2023-03-23T21:46:06.728Z,12.45
2023-03-23T21:51:15.195Z,12.39
2023-03-23T21:56:19.862Z,12.34
2023-03-23T22:01:25.362Z,12.26
2023-03-23T22:06:32.245Z,12.19
2023-03-23T22:11:38.627Z,12.10
2023-03-23T22:16:43.879Z,11.95
2023-03-23T22:21:48.393Z,11.85
2023-03-23T22:26:52.702Z,11.86
2023-03-23T22:31:57.345Z,11.91
2023-03-23T22:37:02.184Z,11.88
2023-03-23T22:42:06.232Z,11.84
2023-03-23T22:47:10.852Z,11.77
2023-03-23T22:52:15.377Z,11.70
2023-03-23T22:57:22.423Z,11.64
2023-03-23T23:02:27.584Z,11.65
2023-03-23T23:07:32.497Z,11.61
2023-03-23T23:12:37.369Z,11.58
2023-03-23T23:17:43.523Z,11.53
2023-03-23T23:22:48.920Z,11.45
2023-03-23T23:27:53.416Z,11.29
2023-03-23T23:32:59.754Z,11.15
2023-03-23T23:38:05.719Z,11.04
2023-03-23T23:43:16.368Z,10.90
2023-03-23T23:48:21.344Z,10.74
2023-03-23T23:53:26.198Z,10.60
2023-03-23T23:58:31.290Z,10.50
